sensor_id;sensor_type;location;lat;lon;timestamp;P1;durP1;ratioP1;P2;durP2;ratioP2
75413;SDS011;64758;52.122;5.404;2023-08-06T00:00:53;4.65;;;3.85;;
75413;SDS011;64758;52.122;5.404;2023-08-06T00:03:20;6.53;;;4.70;;
75413;SDS011;64758;52.122;5.404;2023-08-06T00:05:46;8.18;;;4.20;;
75413;SDS011;64758;52.122;5.404;2023-08-06T00:08:13;10.35;;;4.40;;
75413;SDS011;64758;52.122;5.404;2023-08-06T00:10:40;5.97;;;4.10;;
75413;SDS011;64758;52.122;5.404;2023-08-06T00:13:07;6.57;;;4.28;;
75413;SDS011;64758;52.122;5.404;2023-08-06T00:15:34;5.10;;;4.00;;
75413;SDS011;64758;52.122;5.404;2023-08-06T00:18:01;4.95;;;4.30;;
75413;SDS011;64758;52.122;5.404;2023-08-06T00:20:27;6.03;;;4.10;;
75413;SDS011;64758;52.122;5.404;2023-08-06T00:22:54;5.75;;;4.25;;
75413;SDS011;64758;52.122;5.404;2023-08-06T00:25:20;3.95;;;3.47;;
75413;SDS011;64758;52.122;5.404;2023-08-06T00:27:47;7.77;;;4.07;;
75413;SDS011;64758;52.122;5.404;2023-08-06T00:30:14;8.95;;;4.78;;
75413;SDS011;64758;52.122;5.404;2023-08-06T00:32:40;6.07;;;4.60;;
75413;SDS011;64758;52.122;5.404;2023-08-06T00:35:07;5.57;;;4.20;;
75413;SDS011;64758;52.122;5.404;2023-08-06T00:37:33;7.35;;;4.47;;
75413;SDS011;64758;52.122;5.404;2023-08-06T00:40:00;6.00;;;4.60;;
75413;SDS011;64758;52.122;5.404;2023-08-06T00:42:27;5.65;;;4.57;;
75413;SDS011;64758;52.122;5.404;2023-08-06T00:44:53;6.13;;;4.00;;
75413;SDS011;64758;52.122;5.404;2023-08-06T00:47:20;7.90;;;4.70;;
75413;SDS011;64758;52.122;5.404;2023-08-06T00:49:47;4.85;;;4.20;;
75413;SDS011;64758;52.122;5.404;2023-08-06T00:52:14;4.67;;;4.13;;
75413;SDS011;64758;52.122;5.404;2023-08-06T00:54:40;6.88;;;4.43;;
75413;SDS011;64758;52.122;5.404;2023-08-06T00:57:07;8.98;;;4.40;;
75413;SDS011;64758;52.122;5.404;2023-08-06T00:59:35;5.35;;;4.57;;
75413;SDS011;64758;52.122;5.404;2023-08-06T01:02:02;8.43;;;4.70;;
75413;SDS011;64758;52.122;5.404;2023-08-06T01:04:29;5.13;;;4.60;;
75413;SDS011;64758;52.122;5.404;2023-08-06T01:07:04;7.68;;;4.55;;
75413;SDS011;64758;52.122;5.404;2023-08-06T01:09:55;7.15;;;4.53;;
75413;SDS011;64758;52.122;5.404;2023-08-06T01:15:31;8.77;;;5.05;;
75413;SDS011;64758;52.122;5.404;2023-08-06T01:18:04;5.70;;;4.17;;
75413;SDS011;64758;52.122;5.404;2023-08-06T01:20:31;6.75;;;4.65;;
75413;SDS011;64758;52.122;5.404;2023-08-06T01:22:57;5.90;;;4.60;;
75413;SDS011;64758;52.122;5.404;2023-08-06T01:25:30;6.18;;;4.05;;
75413;SDS011;64758;52.122;5.404;2023-08-06T01:28:04;7.35;;;5.20;;
75413;SDS011;64758;52.122;5.404;2023-08-06T01:30:40;6.93;;;5.00;;
75413;SDS011;64758;52.122;5.404;2023-08-06T01:33:09;9.57;;;5.50;;
75413;SDS011;64758;52.122;5.404;2023-08-06T01:35:41;6.93;;;5.38;;
75413;SDS011;64758;52.122;5.404;2023-08-06T01:38:08;7.85;;;4.80;;
75413;SDS011;64758;52.122;5.404;2023-08-06T01:40:35;9.23;;;4.53;;
75413;SDS011;64758;52.122;5.404;2023-08-06T01:43:01;10.23;;;5.30;;
75413;SDS011;64758;52.122;5.404;2023-08-06T01:45:28;6.00;;;4.60;;
75413;SDS011;64758;52.122;5.404;2023-08-06T01:47:54;6.97;;;5.03;;
75413;SDS011;64758;52.122;5.404;2023-08-06T01:50:21;5.88;;;4.97;;
75413;SDS011;64758;52.122;5.404;2023-08-06T01:52:47;6.53;;;4.63;;
75413;SDS011;64758;52.122;5.404;2023-08-06T01:55:14;10.97;;;5.60;;
75413;SDS011;64758;52.122;5.404;2023-08-06T01:57:41;7.20;;;5.30;;
75413;SDS011;64758;52.122;5.404;2023-08-06T02:00:07;7.75;;;5.07;;
75413;SDS011;64758;52.122;5.404;2023-08-06T02:02:34;6.60;;;4.93;;
75413;SDS011;64758;52.122;5.404;2023-08-06T02:05:01;11.05;;;5.65;;
75413;SDS011;64758;52.122;5.404;2023-08-06T02:07:27;10.50;;;5.77;;
75413;SDS011;64758;52.122;5.404;2023-08-06T02:09:54;9.23;;;5.57;;
75413;SDS011;64758;52.122;5.404;2023-08-06T02:12:20;7.68;;;5.45;;
75413;SDS011;64758;52.122;5.404;2023-08-06T02:14:47;11.55;;;5.75;;
75413;SDS011;64758;52.122;5.404;2023-08-06T02:17:13;8.25;;;5.68;;
75413;SDS011;64758;52.122;5.404;2023-08-06T02:19:40;8.33;;;6.10;;
75413;SDS011;64758;52.122;5.404;2023-08-06T02:22:07;11.10;;;5.95;;
75413;SDS011;64758;52.122;5.404;2023-08-06T02:24:33;8.70;;;5.95;;
75413;SDS011;64758;52.122;5.404;2023-08-06T02:27:00;9.30;;;6.25;;
75413;SDS011;64758;52.122;5.404;2023-08-06T02:29:26;9.63;;;6.15;;
75413;SDS011;64758;52.122;5.404;2023-08-06T02:31:53;15.07;;;7.33;;
75413;SDS011;64758;52.122;5.404;2023-08-06T02:34:20;11.77;;;7.25;;
75413;SDS011;64758;52.122;5.404;2023-08-06T02:36:46;9.00;;;6.55;;
75413;SDS011;64758;52.122;5.404;2023-08-06T02:39:13;12.00;;;8.00;;
75413;SDS011;64758;52.122;5.404;2023-08-06T02:41:39;10.70;;;7.20;;
75413;SDS011;64758;52.122;5.404;2023-08-06T02:44:06;8.83;;;7.00;;
75413;SDS011;64758;52.122;5.404;2023-08-06T02:46:33;9.73;;;7.43;;
75413;SDS011;64758;52.122;5.404;2023-08-06T02:48:59;11.90;;;7.68;;
75413;SDS011;64758;52.122;5.404;2023-08-06T02:51:26;13.93;;;7.00;;
75413;SDS011;64758;52.122;5.404;2023-08-06T02:53:52;14.23;;;7.45;;
75413;SDS011;64758;52.122;5.404;2023-08-06T02:56:19;15.57;;;7.40;;
75413;SDS011;64758;52.122;5.404;2023-08-06T02:58:45;10.85;;;7.03;;
75413;SDS011;64758;52.122;5.404;2023-08-06T03:01:12;10.65;;;7.53;;
75413;SDS011;64758;52.122;5.404;2023-08-06T03:03:38;12.13;;;7.75;;
75413;SDS011;64758;52.122;5.404;2023-08-06T03:06:05;10.02;;;6.57;;
75413;SDS011;64758;52.122;5.404;2023-08-06T03:08:32;9.20;;;7.00;;
75413;SDS011;64758;52.122;5.404;2023-08-06T03:10:58;10.23;;;5.97;;
75413;SDS011;64758;52.122;5.404;2023-08-06T03:13:25;9.07;;;6.22;;
75413;SDS011;64758;52.122;5.404;2023-08-06T03:15:55;9.13;;;6.47;;
75413;SDS011;64758;52.122;5.404;2023-08-06T03:18:23;11.18;;;6.43;;
75413;SDS011;64758;52.122;5.404;2023-08-06T03:20:49;8.63;;;6.50;;
75413;SDS011;64758;52.122;5.404;2023-08-06T03:23:16;9.55;;;6.53;;
75413;SDS011;64758;52.122;5.404;2023-08-06T03:25:43;8.55;;;6.05;;
75413;SDS011;64758;52.122;5.404;2023-08-06T03:28:10;8.40;;;6.35;;
75413;SDS011;64758;52.122;5.404;2023-08-06T03:30:36;7.18;;;5.50;;
75413;SDS011;64758;52.122;5.404;2023-08-06T03:33:03;8.40;;;5.73;;
75413;SDS011;64758;52.122;5.404;2023-08-06T03:35:30;7.95;;;5.65;;
75413;SDS011;64758;52.122;5.404;2023-08-06T03:37:56;8.15;;;6.15;;
75413;SDS011;64758;52.122;5.404;2023-08-06T03:40:23;7.10;;;5.47;;
75413;SDS011;64758;52.122;5.404;2023-08-06T03:42:49;8.00;;;5.82;;
75413;SDS011;64758;52.122;5.404;2023-08-06T03:45:16;9.50;;;5.70;;
75413;SDS011;64758;52.122;5.404;2023-08-06T03:47:42;8.60;;;5.93;;
75413;SDS011;64758;52.122;5.404;2023-08-06T03:50:09;8.40;;;5.80;;
75413;SDS011;64758;52.122;5.404;2023-08-06T03:52:36;8.27;;;6.13;;
75413;SDS011;64758;52.122;5.404;2023-08-06T03:55:03;8.30;;;5.82;;
75413;SDS011;64758;52.122;5.404;2023-08-06T03:57:29;7.50;;;5.63;;
75413;SDS011;64758;52.122;5.404;2023-08-06T03:59:56;8.10;;;6.03;;
75413;SDS011;64758;52.122;5.404;2023-08-06T04:02:22;8.50;;;6.03;;
75413;SDS011;64758;52.122;5.404;2023-08-06T04:04:49;8.55;;;6.55;;
75413;SDS011;64758;52.122;5.404;2023-08-06T04:07:15;8.73;;;6.63;;
75413;SDS011;64758;52.122;5.404;2023-08-06T04:09:55;9.67;;;7.17;;
75413;SDS011;64758;52.122;5.404;2023-08-06T04:12:23;10.07;;;7.20;;
75413;SDS011;64758;52.122;5.404;2023-08-06T04:14:50;10.45;;;7.03;;
75413;SDS011;64758;52.122;5.404;2023-08-06T04:17:18;11.13;;;7.03;;
75413;SDS011;64758;52.122;5.404;2023-08-06T04:19:52;11.20;;;7.70;;
75413;SDS011;64758;52.122;5.404;2023-08-06T04:22:20;9.63;;;7.37;;
75413;SDS011;64758;52.122;5.404;2023-08-06T04:24:47;10.02;;;7.75;;
75413;SDS011;64758;52.122;5.404;2023-08-06T04:27:14;9.00;;;7.25;;
75413;SDS011;64758;52.122;5.404;2023-08-06T04:29:41;11.57;;;7.13;;
75413;SDS011;64758;52.122;5.404;2023-08-06T04:32:08;10.68;;;7.53;;
75413;SDS011;64758;52.122;5.404;2023-08-06T04:34:36;9.50;;;7.23;;
75413;SDS011;64758;52.122;5.404;2023-08-06T04:37:03;11.00;;;8.05;;
75413;SDS011;64758;52.122;5.404;2023-08-06T04:39:30;12.45;;;7.90;;
75413;SDS011;64758;52.122;5.404;2023-08-06T04:41:57;11.68;;;8.05;;
75413;SDS011;64758;52.122;5.404;2023-08-06T04:44:24;15.27;;;7.75;;
75413;SDS011;64758;52.122;5.404;2023-08-06T04:46:50;12.23;;;8.50;;
75413;SDS011;64758;52.122;5.404;2023-08-06T04:49:18;12.68;;;9.05;;
75413;SDS011;64758;52.122;5.404;2023-08-06T04:51:45;12.02;;;9.05;;
75413;SDS011;64758;52.122;5.404;2023-08-06T04:54:12;14.98;;;9.23;;
75413;SDS011;64758;52.122;5.404;2023-08-06T04:56:38;11.60;;;9.05;;
75413;SDS011;64758;52.122;5.404;2023-08-06T04:59:05;12.13;;;8.73;;
75413;SDS011;64758;52.122;5.404;2023-08-06T05:01:32;12.13;;;8.98;;
75413;SDS011;64758;52.122;5.404;2023-08-06T05:03:58;11.43;;;8.55;;
75413;SDS011;64758;52.122;5.404;2023-08-06T05:06:25;13.27;;;8.32;;
75413;SDS011;64758;52.122;5.404;2023-08-06T05:08:51;12.30;;;8.77;;
75413;SDS011;64758;52.122;5.404;2023-08-06T05:11:18;13.17;;;9.00;;
75413;SDS011;64758;52.122;5.404;2023-08-06T05:13:44;13.10;;;9.45;;
75413;SDS011;64758;52.122;5.404;2023-08-06T05:16:11;13.07;;;9.07;;
75413;SDS011;64758;52.122;5.404;2023-08-06T05:18:38;12.90;;;8.95;;
75413;SDS011;64758;52.122;5.404;2023-08-06T05:21:05;17.02;;;9.18;;
75413;SDS011;64758;52.122;5.404;2023-08-06T05:23:32;14.90;;;9.73;;
75413;SDS011;64758;52.122;5.404;2023-08-06T05:25:58;13.02;;;9.85;;
75413;SDS011;64758;52.122;5.404;2023-08-06T05:28:25;15.85;;;10.98;;
75413;SDS011;64758;52.122;5.404;2023-08-06T05:30:51;15.55;;;10.38;;
75413;SDS011;64758;52.122;5.404;2023-08-06T05:33:18;16.17;;;10.98;;
75413;SDS011;64758;52.122;5.404;2023-08-06T05:35:44;16.83;;;10.43;;
75413;SDS011;64758;52.122;5.404;2023-08-06T05:38:11;16.95;;;10.10;;
75413;SDS011;64758;52.122;5.404;2023-08-06T05:40:38;15.98;;;10.30;;
75413;SDS011;64758;52.122;5.404;2023-08-06T05:43:04;15.98;;;10.32;;
75413;SDS011;64758;52.122;5.404;2023-08-06T05:45:31;15.00;;;10.57;;
75413;SDS011;64758;52.122;5.404;2023-08-06T05:47:57;16.03;;;9.83;;
75413;SDS011;64758;52.122;5.404;2023-08-06T05:50:24;16.00;;;10.57;;
75413;SDS011;64758;52.122;5.404;2023-08-06T05:52:51;15.55;;;10.05;;
75413;SDS011;64758;52.122;5.404;2023-08-06T05:55:19;17.27;;;10.60;;
75413;SDS011;64758;52.122;5.404;2023-08-06T05:57:46;14.40;;;9.98;;
75413;SDS011;64758;52.122;5.404;2023-08-06T06:00:13;14.43;;;9.77;;
75413;SDS011;64758;52.122;5.404;2023-08-06T06:02:39;16.70;;;10.25;;
75413;SDS011;64758;52.122;5.404;2023-08-06T06:05:06;14.95;;;9.90;;
75413;SDS011;64758;52.122;5.404;2023-08-06T06:07:33;14.75;;;9.75;;
75413;SDS011;64758;52.122;5.404;2023-08-06T06:10:00;14.13;;;10.43;;
75413;SDS011;64758;52.122;5.404;2023-08-06T06:12:26;17.00;;;10.10;;
75413;SDS011;64758;52.122;5.404;2023-08-06T06:14:53;15.52;;;10.35;;
75413;SDS011;64758;52.122;5.404;2023-08-06T06:17:20;16.85;;;10.50;;
75413;SDS011;64758;52.122;5.404;2023-08-06T06:19:46;15.68;;;10.60;;
75413;SDS011;64758;52.122;5.404;2023-08-06T06:22:13;14.57;;;9.52;;
75413;SDS011;64758;52.122;5.404;2023-08-06T06:24:40;15.27;;;9.83;;
75413;SDS011;64758;52.122;5.404;2023-08-06T06:27:06;14.52;;;10.60;;
75413;SDS011;64758;52.122;5.404;2023-08-06T06:29:33;14.85;;;10.38;;
75413;SDS011;64758;52.122;5.404;2023-08-06T06:32:00;16.10;;;10.82;;
75413;SDS011;64758;52.122;5.404;2023-08-06T06:34:26;14.52;;;10.20;;
75413;SDS011;64758;52.122;5.404;2023-08-06T06:36:53;19.30;;;10.77;;
75413;SDS011;64758;52.122;5.404;2023-08-06T06:39:20;15.50;;;10.43;;
75413;SDS011;64758;52.122;5.404;2023-08-06T06:41:47;17.08;;;10.60;;
75413;SDS011;64758;52.122;5.404;2023-08-06T06:44:14;13.02;;;9.35;;
75413;SDS011;64758;52.122;5.404;2023-08-06T06:46:41;17.20;;;10.38;;
75413;SDS011;64758;52.122;5.404;2023-08-06T06:49:07;17.13;;;11.10;;
75413;SDS011;64758;52.122;5.404;2023-08-06T06:51:34;13.77;;;9.77;;
75413;SDS011;64758;52.122;5.404;2023-08-06T06:54:02;16.02;;;10.00;;
75413;SDS011;64758;52.122;5.404;2023-08-06T06:56:29;16.63;;;9.43;;
75413;SDS011;64758;52.122;5.404;2023-08-06T06:58:55;11.98;;;8.73;;
75413;SDS011;64758;52.122;5.404;2023-08-06T07:01:22;13.90;;;9.17;;
75413;SDS011;64758;52.122;5.404;2023-08-06T07:03:49;15.95;;;9.93;;
75413;SDS011;64758;52.122;5.404;2023-08-06T07:06:15;16.35;;;9.30;;
75413;SDS011;64758;52.122;5.404;2023-08-06T07:08:44;13.82;;;9.20;;
75413;SDS011;64758;52.122;5.404;2023-08-06T07:11:11;13.10;;;9.45;;
75413;SDS011;64758;52.122;5.404;2023-08-06T07:13:38;12.00;;;8.90;;
75413;SDS011;64758;52.122;5.404;2023-08-06T07:16:04;14.48;;;9.85;;
75413;SDS011;64758;52.122;5.404;2023-08-06T07:18:32;14.70;;;9.63;;
75413;SDS011;64758;52.122;5.404;2023-08-06T07:20:59;12.95;;;9.65;;
75413;SDS011;64758;52.122;5.404;2023-08-06T07:23:26;16.00;;;9.52;;
75413;SDS011;64758;52.122;5.404;2023-08-06T07:25:52;15.17;;;10.10;;
75413;SDS011;64758;52.122;5.404;2023-08-06T07:28:19;13.95;;;9.73;;
75413;SDS011;64758;52.122;5.404;2023-08-06T07:30:46;12.60;;;9.52;;
75413;SDS011;64758;52.122;5.404;2023-08-06T07:33:13;14.45;;;9.63;;
75413;SDS011;64758;52.122;5.404;2023-08-06T07:35:39;16.08;;;10.43;;
75413;SDS011;64758;52.122;5.404;2023-08-06T07:38:06;16.07;;;10.90;;
75413;SDS011;64758;52.122;5.404;2023-08-06T07:40:32;18.90;;;10.48;;
75413;SDS011;64758;52.122;5.404;2023-08-06T07:43:01;15.52;;;9.80;;
75413;SDS011;64758;52.122;5.404;2023-08-06T07:45:28;14.90;;;9.98;;
75413;SDS011;64758;52.122;5.404;2023-08-06T07:47:59;16.25;;;10.05;;
75413;SDS011;64758;52.122;5.404;2023-08-06T07:50:25;15.00;;;9.40;;
75413;SDS011;64758;52.122;5.404;2023-08-06T07:52:52;14.60;;;9.88;;
75413;SDS011;64758;52.122;5.404;2023-08-06T07:55:18;13.95;;;9.73;;
75413;SDS011;64758;52.122;5.404;2023-08-06T07:57:45;11.27;;;7.65;;
75413;SDS011;64758;52.122;5.404;2023-08-06T08:00:12;6.68;;;4.57;;
75413;SDS011;64758;52.122;5.404;2023-08-06T08:02:38;5.07;;;3.80;;
75413;SDS011;64758;52.122;5.404;2023-08-06T08:05:05;4.22;;;3.40;;
75413;SDS011;64758;52.122;5.404;2023-08-06T08:07:33;3.70;;;2.80;;
75413;SDS011;64758;52.122;5.404;2023-08-06T08:10:00;4.45;;;1.85;;
75413;SDS011;64758;52.122;5.404;2023-08-06T08:12:26;2.20;;;1.30;;
75413;SDS011;64758;52.122;5.404;2023-08-06T08:14:53;1.57;;;1.20;;
75413;SDS011;64758;52.122;5.404;2023-08-06T08:17:20;1.80;;;1.30;;
75413;SDS011;64758;52.122;5.404;2023-08-06T08:19:46;2.15;;;1.30;;
75413;SDS011;64758;52.122;5.404;2023-08-06T08:22:13;1.50;;;1.10;;
75413;SDS011;64758;52.122;5.404;2023-08-06T08:24:39;4.10;;;1.50;;
75413;SDS011;64758;52.122;5.404;2023-08-06T08:27:06;1.60;;;1.20;;
75413;SDS011;64758;52.122;5.404;2023-08-06T08:29:32;1.50;;;1.10;;
75413;SDS011;64758;52.122;5.404;2023-08-06T08:31:59;1.63;;;1.20;;
75413;SDS011;64758;52.122;5.404;2023-08-06T08:34:25;2.00;;;0.95;;
75413;SDS011;64758;52.122;5.404;2023-08-06T08:36:52;1.73;;;1.00;;
75413;SDS011;64758;52.122;5.404;2023-08-06T08:39:18;3.67;;;1.00;;
75413;SDS011;64758;52.122;5.404;2023-08-06T08:41:45;1.80;;;1.00;;
75413;SDS011;64758;52.122;5.404;2023-08-06T08:44:11;1.17;;;0.90;;
75413;SDS011;64758;52.122;5.404;2023-08-06T08:46:42;1.70;;;1.02;;
75413;SDS011;64758;52.122;5.404;2023-08-06T08:49:10;3.42;;;1.08;;
75413;SDS011;64758;52.122;5.404;2023-08-06T08:51:37;2.13;;;1.17;;
75413;SDS011;64758;52.122;5.404;2023-08-06T08:54:04;1.50;;;1.05;;
75413;SDS011;64758;52.122;5.404;2023-08-06T08:56:34;2.15;;;1.15;;
75413;SDS011;64758;52.122;5.404;2023-08-06T08:59:00;2.63;;;1.20;;
75413;SDS011;64758;52.122;5.404;2023-08-06T09:01:27;1.50;;;1.13;;
75413;SDS011;64758;52.122;5.404;2023-08-06T09:03:55;1.63;;;1.00;;
75413;SDS011;64758;52.122;5.404;2023-08-06T09:06:23;1.98;;;1.13;;
75413;SDS011;64758;52.122;5.404;2023-08-06T09:08:59;1.60;;;1.20;;
75413;SDS011;64758;52.122;5.404;2023-08-06T09:11:33;1.90;;;1.30;;
75413;SDS011;64758;52.122;5.404;2023-08-06T09:14:07;1.70;;;1.27;;
75413;SDS011;64758;52.122;5.404;2023-08-06T09:16:35;1.60;;;1.30;;
75413;SDS011;64758;52.122;5.404;2023-08-06T09:19:08;2.30;;;1.70;;
75413;SDS011;64758;52.122;5.404;2023-08-06T09:21:39;3.10;;;1.30;;
75413;SDS011;64758;52.122;5.404;2023-08-06T09:24:07;3.95;;;1.55;;
75413;SDS011;64758;52.122;5.404;2023-08-06T09:26:42;2.20;;;1.35;;
75413;SDS011;64758;52.122;5.404;2023-08-06T09:29:10;3.17;;;1.30;;
75413;SDS011;64758;52.122;5.404;2023-08-06T09:31:41;2.08;;;1.58;;
75413;SDS011;64758;52.122;5.404;2023-08-06T09:34:14;1.92;;;1.40;;
75413;SDS011;64758;52.122;5.404;2023-08-06T09:36:43;1.63;;;1.50;;
75413;SDS011;64758;52.122;5.404;2023-08-06T09:39:12;2.17;;;1.70;;
75413;SDS011;64758;52.122;5.404;2023-08-06T09:41:41;3.30;;;1.50;;
75413;SDS011;64758;52.122;5.404;2023-08-06T09:44:20;3.45;;;1.90;;
75413;SDS011;64758;52.122;5.404;2023-08-06T09:46:48;3.83;;;1.73;;
75413;SDS011;64758;52.122;5.404;2023-08-06T09:49:17;2.30;;;1.75;;
75413;SDS011;64758;52.122;5.404;2023-08-06T09:51:48;3.58;;;2.45;;
75413;SDS011;64758;52.122;5.404;2023-08-06T09:54:18;3.53;;;1.80;;
75413;SDS011;64758;52.122;5.404;2023-08-06T09:56:54;3.05;;;2.30;;
75413;SDS011;64758;52.122;5.404;2023-08-06T09:59:22;4.13;;;2.22;;
75413;SDS011;64758;52.122;5.404;2023-08-06T10:01:50;3.95;;;2.30;;
75413;SDS011;64758;52.122;5.404;2023-08-06T10:04:18;3.35;;;2.10;;
75413;SDS011;64758;52.122;5.404;2023-08-06T10:06:50;4.10;;;2.07;;
75413;SDS011;64758;52.122;5.404;2023-08-06T10:09:17;3.10;;;2.30;;
75413;SDS011;64758;52.122;5.404;2023-08-06T10:11:47;3.67;;;2.38;;
75413;SDS011;64758;52.122;5.404;2023-08-06T10:14:23;3.88;;;2.15;;
75413;SDS011;64758;52.122;5.404;2023-08-06T10:16:53;3.47;;;2.35;;
75413;SDS011;64758;52.122;5.404;2023-08-06T10:19:22;3.80;;;2.50;;
75413;SDS011;64758;52.122;5.404;2023-08-06T10:22:12;3.95;;;2.35;;
75413;SDS011;64758;52.122;5.404;2023-08-06T10:24:45;3.05;;;2.17;;
75413;SDS011;64758;52.122;5.404;2023-08-06T10:27:21;6.47;;;2.65;;
75413;SDS011;64758;52.122;5.404;2023-08-06T10:29:55;4.20;;;2.63;;
75413;SDS011;64758;52.122;5.404;2023-08-06T10:32:46;7.07;;;3.00;;
75413;SDS011;64758;52.122;5.404;2023-08-06T10:40:31;5.25;;;2.47;;
75413;SDS011;64758;52.122;5.404;2023-08-06T10:42:59;4.10;;;2.55;;
75413;SDS011;64758;52.122;5.404;2023-08-06T10:45:30;3.87;;;2.47;;
75413;SDS011;64758;52.122;5.404;2023-08-06T10:48:01;4.28;;;2.60;;
75413;SDS011;64758;52.122;5.404;2023-08-06T10:50:28;4.35;;;1.95;;
75413;SDS011;64758;52.122;5.404;2023-08-06T10:52:54;3.80;;;1.80;;
75413;SDS011;64758;52.122;5.404;2023-08-06T10:55:28;4.13;;;1.88;;
75413;SDS011;64758;52.122;5.404;2023-08-06T10:57:55;3.57;;;2.03;;
75413;SDS011;64758;52.122;5.404;2023-08-06T11:00:22;5.60;;;1.70;;
75413;SDS011;64758;52.122;5.404;2023-08-06T11:02:52;5.40;;;1.90;;
75413;SDS011;64758;52.122;5.404;2023-08-06T11:05:19;3.17;;;1.63;;
75413;SDS011;64758;52.122;5.404;2023-08-06T11:07:46;2.70;;;1.77;;
75413;SDS011;64758;52.122;5.404;2023-08-06T11:10:16;2.63;;;1.53;;
75413;SDS011;64758;52.122;5.404;2023-08-06T11:12:42;2.25;;;1.40;;
75413;SDS011;64758;52.122;5.404;2023-08-06T11:15:09;3.75;;;1.52;;
75413;SDS011;64758;52.122;5.404;2023-08-06T11:17:39;4.20;;;1.80;;
75413;SDS011;64758;52.122;5.404;2023-08-06T11:20:07;3.15;;;1.83;;
75413;SDS011;64758;52.122;5.404;2023-08-06T11:22:36;2.23;;;1.20;;
75413;SDS011;64758;52.122;5.404;2023-08-06T11:25:04;4.05;;;1.65;;
75413;SDS011;64758;52.122;5.404;2023-08-06T11:27:32;2.70;;;1.20;;
75413;SDS011;64758;52.122;5.404;2023-08-06T11:29:58;2.72;;;1.33;;
75413;SDS011;64758;52.122;5.404;2023-08-06T11:32:25;2.50;;;1.30;;
75413;SDS011;64758;52.122;5.404;2023-08-06T11:34:53;2.97;;;1.47;;
75413;SDS011;64758;52.122;5.404;2023-08-06T11:37:23;2.33;;;1.20;;
75413;SDS011;64758;52.122;5.404;2023-08-06T11:39:51;5.57;;;1.55;;
75413;SDS011;64758;52.122;5.404;2023-08-06T11:42:18;3.03;;;0.93;;
75413;SDS011;64758;52.122;5.404;2023-08-06T11:44:45;5.43;;;1.17;;
75413;SDS011;64758;52.122;5.404;2023-08-06T11:47:12;2.97;;;1.00;;
75413;SDS011;64758;52.122;5.404;2023-08-06T11:52:15;2.65;;;1.27;;
75413;SDS011;64758;52.122;5.404;2023-08-06T11:54:45;2.92;;;1.10;;
75413;SDS011;64758;52.122;5.404;2023-08-06T11:57:13;2.20;;;1.13;;
75413;SDS011;64758;52.122;5.404;2023-08-06T11:59:43;4.90;;;1.40;;
75413;SDS011;64758;52.122;5.404;2023-08-06T12:02:11;3.53;;;1.45;;
75413;SDS011;64758;52.122;5.404;2023-08-06T12:07:28;1.95;;;1.00;;
75413;SDS011;64758;52.122;5.404;2023-08-06T12:09:56;5.32;;;0.90;;
75413;SDS011;64758;52.122;5.404;2023-08-06T12:12:24;3.07;;;0.97;;
75413;SDS011;64758;52.122;5.404;2023-08-06T12:14:51;1.83;;;0.98;;
75413;SDS011;64758;52.122;5.404;2023-08-06T12:17:17;6.18;;;0.88;;
75413;SDS011;64758;52.122;5.404;2023-08-06T12:19:44;2.42;;;0.80;;
75413;SDS011;64758;52.122;5.404;2023-08-06T12:22:13;2.83;;;0.70;;
75413;SDS011;64758;52.122;5.404;2023-08-06T12:24:41;1.27;;;0.70;;
75413;SDS011;64758;52.122;5.404;2023-08-06T12:27:08;3.10;;;0.68;;
75413;SDS011;64758;52.122;5.404;2023-08-06T12:29:36;2.15;;;0.70;;
75413;SDS011;64758;52.122;5.404;2023-08-06T12:32:06;2.30;;;0.60;;
75413;SDS011;64758;52.122;5.404;2023-08-06T12:34:33;4.45;;;1.05;;
75413;SDS011;64758;52.122;5.404;2023-08-06T12:37:17;1.47;;;0.53;;
75413;SDS011;64758;52.122;5.404;2023-08-06T12:39:44;1.42;;;0.50;;
75413;SDS011;64758;52.122;5.404;2023-08-06T12:42:10;2.05;;;0.52;;
75413;SDS011;64758;52.122;5.404;2023-08-06T12:44:37;3.13;;;0.60;;
75413;SDS011;64758;52.122;5.404;2023-08-06T12:47:04;1.63;;;0.70;;
75413;SDS011;64758;52.122;5.404;2023-08-06T12:49:30;2.33;;;0.80;;
75413;SDS011;64758;52.122;5.404;2023-08-06T12:51:59;2.97;;;0.68;;
75413;SDS011;64758;52.122;5.404;2023-08-06T12:54:26;2.50;;;0.70;;
75413;SDS011;64758;52.122;5.404;2023-08-06T12:56:53;1.75;;;0.68;;
75413;SDS011;64758;52.122;5.404;2023-08-06T12:59:20;2.53;;;0.63;;
75413;SDS011;64758;52.122;5.404;2023-08-06T13:01:47;3.00;;;0.73;;
75413;SDS011;64758;52.122;5.404;2023-08-06T13:04:14;1.50;;;0.70;;
75413;SDS011;64758;52.122;5.404;2023-08-06T13:06:48;5.05;;;0.65;;
75413;SDS011;64758;52.122;5.404;2023-08-06T13:09:15;1.20;;;0.47;;
75413;SDS011;64758;52.122;5.404;2023-08-06T13:11:42;2.40;;;0.85;;
75413;SDS011;64758;52.122;5.404;2023-08-06T13:14:13;1.77;;;0.70;;
75413;SDS011;64758;52.122;5.404;2023-08-06T13:16:41;2.85;;;0.90;;
75413;SDS011;64758;52.122;5.404;2023-08-06T13:19:09;2.38;;;0.93;;
75413;SDS011;64758;52.122;5.404;2023-08-06T13:24:16;2.17;;;0.80;;
75413;SDS011;64758;52.122;5.404;2023-08-06T13:26:43;1.47;;;0.80;;
75413;SDS011;64758;52.122;5.404;2023-08-06T13:29:09;2.42;;;0.95;;
75413;SDS011;64758;52.122;5.404;2023-08-06T13:31:37;1.50;;;0.80;;
75413;SDS011;64758;52.122;5.404;2023-08-06T13:34:04;1.75;;;0.80;;
75413;SDS011;64758;52.122;5.404;2023-08-06T13:36:31;3.05;;;0.80;;
75413;SDS011;64758;52.122;5.404;2023-08-06T13:38:58;2.53;;;0.90;;
75413;SDS011;64758;52.122;5.404;2023-08-06T13:41:24;1.15;;;0.60;;
75413;SDS011;64758;52.122;5.404;2023-08-06T13:43:51;3.08;;;0.80;;
75413;SDS011;64758;52.122;5.404;2023-08-06T13:46:18;3.42;;;1.00;;
75413;SDS011;64758;52.122;5.404;2023-08-06T13:48:47;3.42;;;0.95;;
75413;SDS011;64758;52.122;5.404;2023-08-06T13:51:17;2.30;;;0.87;;
75413;SDS011;64758;52.122;5.404;2023-08-06T13:53:45;1.75;;;0.88;;
75413;SDS011;64758;52.122;5.404;2023-08-06T13:56:12;2.95;;;0.77;;
75413;SDS011;64758;52.122;5.404;2023-08-06T13:58:38;3.08;;;0.90;;
75413;SDS011;64758;52.122;5.404;2023-08-06T14:01:05;3.15;;;1.00;;
75413;SDS011;64758;52.122;5.404;2023-08-06T14:03:33;2.73;;;0.80;;
75413;SDS011;64758;52.122;5.404;2023-08-06T14:06:00;4.30;;;1.10;;
75413;SDS011;64758;52.122;5.404;2023-08-06T14:08:27;2.58;;;0.90;;
75413;SDS011;64758;52.122;5.404;2023-08-06T14:10:53;3.15;;;1.20;;
75413;SDS011;64758;52.122;5.404;2023-08-06T14:13:21;5.03;;;1.20;;
75413;SDS011;64758;52.122;5.404;2023-08-06T14:15:48;2.67;;;0.90;;
75413;SDS011;64758;52.122;5.404;2023-08-06T14:18:15;4.50;;;1.00;;
75413;SDS011;64758;52.122;5.404;2023-08-06T14:20:43;3.65;;;1.27;;
75413;SDS011;64758;52.122;5.404;2023-08-06T14:23:09;2.58;;;0.90;;
75413;SDS011;64758;52.122;5.404;2023-08-06T14:25:37;2.13;;;0.98;;
75413;SDS011;64758;52.122;5.404;2023-08-06T14:28:04;2.80;;;1.30;;
75413;SDS011;64758;52.122;5.404;2023-08-06T14:30:33;2.85;;;1.08;;
75413;SDS011;64758;52.122;5.404;2023-08-06T14:33:00;7.03;;;1.48;;
75413;SDS011;64758;52.122;5.404;2023-08-06T14:35:47;2.03;;;1.02;;
75413;SDS011;64758;52.122;5.404;2023-08-06T14:38:14;3.00;;;1.00;;
75413;SDS011;64758;52.122;5.404;2023-08-06T14:40:41;3.23;;;1.27;;
75413;SDS011;64758;52.122;5.404;2023-08-06T14:43:09;2.00;;;1.15;;
75413;SDS011;64758;52.122;5.404;2023-08-06T14:45:39;1.95;;;0.80;;
75413;SDS011;64758;52.122;5.404;2023-08-06T14:48:06;1.55;;;0.65;;
75413;SDS011;64758;52.122;5.404;2023-08-06T14:50:33;4.65;;;0.90;;
75413;SDS011;64758;52.122;5.404;2023-08-06T14:52:59;2.67;;;1.10;;
75413;SDS011;64758;52.122;5.404;2023-08-06T14:55:30;4.80;;;0.90;;
75413;SDS011;64758;52.122;5.404;2023-08-06T14:57:58;2.55;;;0.90;;
75413;SDS011;64758;52.122;5.404;2023-08-06T15:00:25;3.22;;;0.95;;
75413;SDS011;64758;52.122;5.404;2023-08-06T15:02:51;1.98;;;0.95;;